Terminal Aerodrome Forecast
Issued by NWS

Home | Current Version | Previous Version | Text Only | Print | Product List | Glossary On
Versions: 1 2 3 4 5 6 7 8 9 10 11 12
668
FTUS45 KRIW 221121
TAFBPI
TAF
KBPI 221121Z 2212/2312 17010KT P6SM VCSH SCT030 BKN060
     FM221400 21008KT P6SM SCT040 BKN070
     FM221800 25011G18KT P6SM VCSH SCT040 BKN060
     FM222300 32013KT P6SM VCSH SCT030 BKN050
     FM230600 05006KT P6SM SCT040 BKN070=

USA.gov is the U.S. government's official web portal to all federal, state and local government web resources and services.